sensor_id;sensor_type;location;lat;lon;timestamp;pressure;altitude;pressure_sealevel;temperature;humidity
74905;BME280;63465;50.862;6.220;2022-09-20T00:01:53;100548.00;;;11.94;76.71
74905;BME280;63465;50.862;6.220;2022-09-20T00:04:18;100546.94;;;11.76;77.49
74905;BME280;63465;50.862;6.220;2022-09-20T00:06:44;100545.28;;;11.73;77.67
74905;BME280;63465;50.862;6.220;2022-09-20T00:09:09;100547.38;;;11.87;77.47
74905;BME280;63465;50.862;6.220;2022-09-20T00:11:35;100550.09;;;12.08;76.40
74905;BME280;63465;50.862;6.220;2022-09-20T00:14:03;100548.25;;;11.88;77.29
74905;BME280;63465;50.862;6.220;2022-09-20T00:16:32;100556.47;;;11.82;77.50
74905;BME280;63465;50.862;6.220;2022-09-20T00:18:59;100546.19;;;11.72;77.94
74905;BME280;63465;50.862;6.220;2022-09-20T00:21:27;100539.91;;;11.75;78.18
74905;BME280;63465;50.862;6.220;2022-09-20T00:23:54;100545.16;;;11.76;78.06
74905;BME280;63465;50.862;6.220;2022-09-20T00:26:21;100543.94;;;11.85;78.18
74905;BME280;63465;50.862;6.220;2022-09-20T00:28:47;100535.56;;;11.72;78.71
74905;BME280;63465;50.862;6.220;2022-09-20T00:31:13;100540.09;;;11.70;78.60
74905;BME280;63465;50.862;6.220;2022-09-20T00:33:39;100542.75;;;11.70;78.92
74905;BME280;63465;50.862;6.220;2022-09-20T00:36:23;100540.09;;;11.70;78.95
74905;BME280;63465;50.862;6.220;2022-09-20T00:38:54;100533.16;;;11.66;78.96
74905;BME280;63465;50.862;6.220;2022-09-20T00:41:19;100537.63;;;11.66;78.83
74905;BME280;63465;50.862;6.220;2022-09-20T00:43:45;100541.97;;;11.67;79.22
74905;BME280;63465;50.862;6.220;2022-09-20T00:46:23;100546.44;;;11.66;79.02
74905;BME280;63465;50.862;6.220;2022-09-20T00:48:53;100543.53;;;11.72;78.63
74905;BME280;63465;50.862;6.220;2022-09-20T00:51:25;100537.88;;;11.59;79.39
74905;BME280;63465;50.862;6.220;2022-09-20T00:53:53;100546.75;;;11.81;78.66
74905;BME280;63465;50.862;6.220;2022-09-20T00:56:26;100540.63;;;11.78;78.80
74905;BME280;63465;50.862;6.220;2022-09-20T00:58:59;100542.88;;;11.67;79.31
74905;BME280;63465;50.862;6.220;2022-09-20T01:01:28;100535.19;;;11.59;79.64
74905;BME280;63465;50.862;6.220;2022-09-20T01:03:53;100540.06;;;11.48;79.78
74905;BME280;63465;50.862;6.220;2022-09-20T01:06:19;100541.75;;;11.51;80.03
74905;BME280;63465;50.862;6.220;2022-09-20T01:08:48;100537.94;;;11.58;80.15
74905;BME280;63465;50.862;6.220;2022-09-20T01:11:15;100535.69;;;11.69;79.63
74905;BME280;63465;50.862;6.220;2022-09-20T01:13:40;100535.63;;;11.71;79.49
74905;BME280;63465;50.862;6.220;2022-09-20T01:16:06;100536.47;;;11.71;79.50
74905;BME280;63465;50.862;6.220;2022-09-20T01:18:33;100534.63;;;11.51;80.04
74905;BME280;63465;50.862;6.220;2022-09-20T01:21:00;100536.19;;;11.57;80.08
74905;BME280;63465;50.862;6.220;2022-09-20T01:31:53;100539.38;;;11.43;80.30
74905;BME280;63465;50.862;6.220;2022-09-20T01:34:27;100542.53;;;11.53;79.79
74905;BME280;63465;50.862;6.220;2022-09-20T01:37:04;100541.38;;;11.60;79.66
74905;BME280;63465;50.862;6.220;2022-09-20T01:39:44;100540.81;;;11.52;79.72
74905;BME280;63465;50.862;6.220;2022-09-20T01:42:15;100536.66;;;11.45;79.87
74905;BME280;63465;50.862;6.220;2022-09-20T01:45:00;100539.56;;;11.38;80.12
74905;BME280;63465;50.862;6.220;2022-09-20T01:50:42;100542.22;;;11.38;79.92
74905;BME280;63465;50.862;6.220;2022-09-20T01:53:44;100544.09;;;11.36;79.92
74905;BME280;63465;50.862;6.220;2022-09-20T01:56:38;100547.00;;;11.52;79.80
74905;BME280;63465;50.862;6.220;2022-09-20T02:10:09;100530.69;;;11.39;79.59
74905;BME280;63465;50.862;6.220;2022-09-20T02:13:00;100534.59;;;11.29;79.82
74905;BME280;63465;50.862;6.220;2022-09-20T02:19:01;100536.72;;;11.21;79.92
74905;BME280;63465;50.862;6.220;2022-09-20T02:21:10;100532.25;;;11.21;80.24
74905;BME280;63465;50.862;6.220;2022-09-20T02:23:55;100529.19;;;11.32;79.71
74905;BME280;63465;50.862;6.220;2022-09-20T02:26:46;100540.34;;;11.18;79.99
74905;BME280;63465;50.862;6.220;2022-09-20T02:29:24;100535.28;;;11.34;79.77
74905;BME280;63465;50.862;6.220;2022-09-20T02:44:01;100525.59;;;11.33;79.51
74905;BME280;63465;50.862;6.220;2022-09-20T02:46:17;100518.09;;;11.21;80.66
74905;BME280;63465;50.862;6.220;2022-09-20T02:48:54;100521.97;;;11.12;80.29
74905;BME280;63465;50.862;6.220;2022-09-20T02:51:39;100524.69;;;11.11;80.58
74905;BME280;63465;50.862;6.220;2022-09-20T02:54:27;100519.25;;;11.14;81.00
74905;BME280;63465;50.862;6.220;2022-09-20T02:57:12;100522.13;;;11.31;80.20
74905;BME280;63465;50.862;6.220;2022-09-20T03:02:39;100524.03;;;11.04;81.81
74905;BME280;63465;50.862;6.220;2022-09-20T03:08:03;100517.47;;;11.14;81.12
74905;BME280;63465;50.862;6.220;2022-09-20T03:13:14;100513.34;;;11.29;80.45
74905;BME280;63465;50.862;6.220;2022-09-20T03:16:11;100507.25;;;11.27;80.42
74905;BME280;63465;50.862;6.220;2022-09-20T03:26:55;100510.53;;;11.10;81.31
74905;BME280;63465;50.862;6.220;2022-09-20T03:29:33;100500.38;;;11.21;81.37
74905;BME280;63465;50.862;6.220;2022-09-20T03:35:34;100513.06;;;11.13;81.51
74905;BME280;63465;50.862;6.220;2022-09-20T03:41:17;100512.63;;;11.02;82.16
74905;BME280;63465;50.862;6.220;2022-09-20T04:00:49;100515.09;;;10.83;83.04
74905;BME280;63465;50.862;6.220;2022-09-20T04:09:25;100521.97;;;10.88;82.70
74905;BME280;63465;50.862;6.220;2022-09-20T04:14:56;100533.09;;;10.75;83.50
74905;BME280;63465;50.862;6.220;2022-09-20T04:20:22;100531.94;;;10.82;82.77
74905;BME280;63465;50.862;6.220;2022-09-20T04:22:54;100536.19;;;10.62;83.92
74905;BME280;63465;50.862;6.220;2022-09-20T04:25:28;100538.19;;;10.56;84.32
74905;BME280;63465;50.862;6.220;2022-09-20T04:28:03;100535.53;;;10.56;84.29
74905;BME280;63465;50.862;6.220;2022-09-20T04:30:34;100529.91;;;10.65;84.21
74905;BME280;63465;50.862;6.220;2022-09-20T04:33:16;100529.97;;;10.63;84.15
74905;BME280;63465;50.862;6.220;2022-09-20T04:36:13;100536.56;;;11.00;82.87
74905;BME280;63465;50.862;6.220;2022-09-20T04:47:22;100537.31;;;10.80;83.91
74905;BME280;63465;50.862;6.220;2022-09-20T04:59:05;100540.72;;;10.84;83.67
74905;BME280;63465;50.862;6.220;2022-09-20T05:04:18;100547.81;;;10.83;83.62
74905;BME280;63465;50.862;6.220;2022-09-20T05:12:57;100555.56;;;11.13;82.61
74905;BME280;63465;50.862;6.220;2022-09-20T05:16:04;100556.19;;;10.96;83.21
74905;BME280;63465;50.862;6.220;2022-09-20T05:21:55;100564.75;;;11.04;83.39
74905;BME280;63465;50.862;6.220;2022-09-20T05:27:21;100559.63;;;11.00;83.68
74905;BME280;63465;50.862;6.220;2022-09-20T05:30:39;100562.78;;;11.10;82.92
74905;BME280;63465;50.862;6.220;2022-09-20T05:38:51;100577.59;;;11.17;82.38
74905;BME280;63465;50.862;6.220;2022-09-20T05:49:58;100573.06;;;11.19;82.24
74905;BME280;63465;50.862;6.220;2022-09-20T05:52:35;100575.72;;;11.19;82.04
74905;BME280;63465;50.862;6.220;2022-09-20T05:55:51;100579.47;;;11.37;81.48
74905;BME280;63465;50.862;6.220;2022-09-20T05:58:30;100580.47;;;11.34;81.47
74905;BME280;63465;50.862;6.220;2022-09-20T06:01:12;100578.50;;;11.39;81.64
74905;BME280;63465;50.862;6.220;2022-09-20T06:03:51;100584.94;;;11.56;81.33
74905;BME280;63465;50.862;6.220;2022-09-20T06:22:40;100601.53;;;11.39;82.50
74905;BME280;63465;50.862;6.220;2022-09-20T06:27:46;100602.16;;;11.69;81.79
74905;BME280;63465;50.862;6.220;2022-09-20T06:30:16;100598.81;;;11.64;81.07
74905;BME280;63465;50.862;6.220;2022-09-20T06:33:00;100600.50;;;11.43;82.24
74905;BME280;63465;50.862;6.220;2022-09-20T06:41:48;100593.09;;;11.51;82.12
74905;BME280;63465;50.862;6.220;2022-09-20T06:44:16;100580.81;;;11.71;81.33
74905;BME280;63465;50.862;6.220;2022-09-20T06:46:41;100570.28;;;12.13;78.79
74905;BME280;63465;50.862;6.220;2022-09-20T06:51:36;100572.78;;;11.96;79.81
74905;BME280;63465;50.862;6.220;2022-09-20T06:54:02;100569.75;;;11.82;80.64
74905;BME280;63465;50.862;6.220;2022-09-20T06:56:30;100574.22;;;11.81;80.24
74905;BME280;63465;50.862;6.220;2022-09-20T06:59:02;100580.41;;;12.26;77.79
74905;BME280;63465;50.862;6.220;2022-09-20T07:01:28;100584.69;;;12.30;78.31
74905;BME280;63465;50.862;6.220;2022-09-20T07:03:54;100584.91;;;11.80;79.61
74905;BME280;63465;50.862;6.220;2022-09-20T07:06:19;100580.59;;;12.21;78.61
74905;BME280;63465;50.862;6.220;2022-09-20T07:08:45;100580.00;;;12.15;79.40
74905;BME280;63465;50.862;6.220;2022-09-20T07:11:13;100592.69;;;12.51;78.45
74905;BME280;63465;50.862;6.220;2022-09-20T07:13:44;100597.84;;;12.33;78.86
74905;BME280;63465;50.862;6.220;2022-09-20T07:16:13;100603.38;;;12.49;78.72
74905;BME280;63465;50.862;6.220;2022-09-20T07:18:39;100605.84;;;12.54;77.60
74905;BME280;63465;50.862;6.220;2022-09-20T07:21:08;100612.50;;;12.84;77.10
74905;BME280;63465;50.862;6.220;2022-09-20T07:23:35;100605.31;;;12.66;77.07
74905;BME280;63465;50.862;6.220;2022-09-20T07:26:00;100609.66;;;12.69;77.01
74905;BME280;63465;50.862;6.220;2022-09-20T07:28:31;100619.97;;;12.76;76.94
74905;BME280;63465;50.862;6.220;2022-09-20T07:30:57;100613.19;;;12.69;76.42
74905;BME280;63465;50.862;6.220;2022-09-20T07:33:23;100619.50;;;12.87;76.08
74905;BME280;63465;50.862;6.220;2022-09-20T07:35:51;100627.69;;;13.03;75.29
74905;BME280;63465;50.862;6.220;2022-09-20T07:38:20;100628.22;;;12.91;76.31
74905;BME280;63465;50.862;6.220;2022-09-20T07:40:56;100629.78;;;12.76;76.76
74905;BME280;63465;50.862;6.220;2022-09-20T07:43:23;100630.44;;;13.41;75.01
74905;BME280;63465;50.862;6.220;2022-09-20T07:45:50;100631.81;;;13.10;75.47
74905;BME280;63465;50.862;6.220;2022-09-20T07:48:21;100634.09;;;12.99;75.13
74905;BME280;63465;50.862;6.220;2022-09-20T07:50:57;100640.25;;;13.60;73.33
74905;BME280;63465;50.862;6.220;2022-09-20T07:53:23;100631.41;;;13.59;73.60
74905;BME280;63465;50.862;6.220;2022-09-20T07:56:04;100633.38;;;13.55;73.51
74905;BME280;63465;50.862;6.220;2022-09-20T07:58:32;100633.78;;;14.03;71.94
74905;BME280;63465;50.862;6.220;2022-09-20T08:01:01;100637.75;;;14.31;69.73
74905;BME280;63465;50.862;6.220;2022-09-20T08:03:31;100637.69;;;13.77;71.28
74905;BME280;63465;50.862;6.220;2022-09-20T08:05:59;100643.38;;;13.88;70.99
74905;BME280;63465;50.862;6.220;2022-09-20T08:08:25;100643.16;;;14.12;71.01
74905;BME280;63465;50.862;6.220;2022-09-20T08:10:50;100649.22;;;13.97;70.16
74905;BME280;63465;50.862;6.220;2022-09-20T08:13:16;100654.28;;;14.03;70.70
74905;BME280;63465;50.862;6.220;2022-09-20T08:15:42;100654.72;;;13.94;70.60
74905;BME280;63465;50.862;6.220;2022-09-20T08:18:08;100657.72;;;14.59;68.44
74905;BME280;63465;50.862;6.220;2022-09-20T08:20:35;100658.25;;;14.67;67.26
74905;BME280;63465;50.862;6.220;2022-09-20T08:23:01;100654.31;;;14.92;66.81
74905;BME280;63465;50.862;6.220;2022-09-20T08:25:27;100661.91;;;15.17;66.14
74905;BME280;63465;50.862;6.220;2022-09-20T08:27:54;100657.16;;;15.89;63.69
74905;BME280;63465;50.862;6.220;2022-09-20T08:30:19;100654.66;;;16.18;62.19
74905;BME280;63465;50.862;6.220;2022-09-20T08:32:45;100650.81;;;15.74;62.25
74905;BME280;63465;50.862;6.220;2022-09-20T08:35:10;100657.69;;;17.62;57.31
74905;BME280;63465;50.862;6.220;2022-09-20T08:37:36;100655.59;;;18.23;53.31
74905;BME280;63465;50.862;6.220;2022-09-20T08:40:02;100652.53;;;17.59;54.74
74905;BME280;63465;50.862;6.220;2022-09-20T08:42:33;100651.50;;;19.62;49.22
74905;BME280;63465;50.862;6.220;2022-09-20T08:45:06;100650.09;;;23.02;42.61
74905;BME280;63465;50.862;6.220;2022-09-20T08:47:43;100647.53;;;23.01;40.79
74905;BME280;63465;50.862;6.220;2022-09-20T08:50:13;100652.28;;;19.77;48.26
74905;BME280;63465;50.862;6.220;2022-09-20T08:52:43;100648.09;;;20.34;46.81
74905;BME280;63465;50.862;6.220;2022-09-20T08:55:18;100658.28;;;21.13;45.30
74905;BME280;63465;50.862;6.220;2022-09-20T08:57:55;100647.34;;;19.95;46.48
74905;BME280;63465;50.862;6.220;2022-09-20T09:00:23;100654.44;;;17.71;53.86
74905;BME280;63465;50.862;6.220;2022-09-20T09:02:55;100654.41;;;17.86;54.11
74905;BME280;63465;50.862;6.220;2022-09-20T09:05:28;100654.84;;;17.51;54.52
74905;BME280;63465;50.862;6.220;2022-09-20T09:08:09;100659.47;;;16.89;56.94
74905;BME280;63465;50.862;6.220;2022-09-20T09:10:41;100660.00;;;16.80;57.44
74905;BME280;63465;50.862;6.220;2022-09-20T09:13:16;100667.94;;;16.35;58.89
74905;BME280;63465;50.862;6.220;2022-09-20T09:15:45;100659.94;;;16.03;57.89
74905;BME280;63465;50.862;6.220;2022-09-20T09:18:16;100652.91;;;16.17;59.63
74905;BME280;63465;50.862;6.220;2022-09-20T09:20:42;100649.88;;;16.39;57.96
74905;BME280;63465;50.862;6.220;2022-09-20T09:23:22;100658.81;;;16.70;56.99
74905;BME280;63465;50.862;6.220;2022-09-20T09:25:51;100652.50;;;16.09;58.32
74905;BME280;63465;50.862;6.220;2022-09-20T09:28:21;100660.34;;;15.80;58.42
74905;BME280;63465;50.862;6.220;2022-09-20T09:30:47;100661.53;;;16.54;56.83
74905;BME280;63465;50.862;6.220;2022-09-20T09:33:23;100653.91;;;19.02;50.83
74905;BME280;63465;50.862;6.220;2022-09-20T09:35:56;100651.13;;;22.25;40.46
74905;BME280;63465;50.862;6.220;2022-09-20T09:38:27;100640.84;;;23.05;39.34
74905;BME280;63465;50.862;6.220;2022-09-20T09:40:56;100650.72;;;26.46;32.44
74905;BME280;63465;50.862;6.220;2022-09-20T09:43:25;100653.19;;;26.40;32.73
74905;BME280;63465;50.862;6.220;2022-09-20T09:46:21;100650.03;;;24.16;35.43
74905;BME280;63465;50.862;6.220;2022-09-20T09:51:29;100654.09;;;24.70;33.84
74905;BME280;63465;50.862;6.220;2022-09-20T09:53:56;100654.72;;;20.17;42.68
74905;BME280;63465;50.862;6.220;2022-09-20T09:59:27;100644.34;;;28.38;29.63
74905;BME280;63465;50.862;6.220;2022-09-20T10:04:46;100653.50;;;19.97;45.08
74905;BME280;63465;50.862;6.220;2022-09-20T10:13:06;100646.06;;;18.72;47.39
74905;BME280;63465;50.862;6.220;2022-09-20T10:16:03;100651.69;;;18.14;50.41
74905;BME280;63465;50.862;6.220;2022-09-20T10:24:48;100654.66;;;17.54;52.11
74905;BME280;63465;50.862;6.220;2022-09-20T10:27:51;100647.94;;;17.46;49.94
74905;BME280;63465;50.862;6.220;2022-09-20T10:30:22;100652.38;;;19.50;47.22
74905;BME280;63465;50.862;6.220;2022-09-20T10:33:20;100652.69;;;17.85;48.44
74905;BME280;63465;50.862;6.220;2022-09-20T10:36:06;100649.63;;;17.76;47.50
74905;BME280;63465;50.862;6.220;2022-09-20T10:47:59;100640.22;;;31.57;24.00
74905;BME280;63465;50.862;6.220;2022-09-20T10:56:43;100638.97;;;20.72;41.99
74905;BME280;63465;50.862;6.220;2022-09-20T11:01:57;100638.69;;;30.17;26.20
74905;BME280;63465;50.862;6.220;2022-09-20T11:08:00;100621.53;;;24.41;33.33
74905;BME280;63465;50.862;6.220;2022-09-20T11:13:09;100637.69;;;20.41;41.03
74905;BME280;63465;50.862;6.220;2022-09-20T11:15:42;100644.53;;;22.18;38.04
74905;BME280;63465;50.862;6.220;2022-09-20T11:18:15;100629.75;;;24.10;31.09
74905;BME280;63465;50.862;6.220;2022-09-20T11:20:56;100645.34;;;18.15;44.30
74905;BME280;63465;50.862;6.220;2022-09-20T11:23:39;100645.03;;;18.20;45.62
74905;BME280;63465;50.862;6.220;2022-09-20T11:26:12;100644.16;;;25.66;29.32
74905;BME280;63465;50.862;6.220;2022-09-20T11:28:45;100637.53;;;29.80;26.03
74905;BME280;63465;50.862;6.220;2022-09-20T11:36:29;100639.28;;;17.13;45.96
74905;BME280;63465;50.862;6.220;2022-09-20T11:39:07;100641.47;;;17.06;47.12
74905;BME280;63465;50.862;6.220;2022-09-20T11:41:36;100646.59;;;18.10;46.98
74905;BME280;63465;50.862;6.220;2022-09-20T11:44:12;100650.69;;;17.74;44.59
74905;BME280;63465;50.862;6.220;2022-09-20T11:46:49;100646.56;;;17.97;49.96
74905;BME280;63465;50.862;6.220;2022-09-20T11:49:47;100646.28;;;17.87;52.61
74905;BME280;63465;50.862;6.220;2022-09-20T11:52:44;100662.78;;;17.52;49.25
74905;BME280;63465;50.862;6.220;2022-09-20T11:58:12;100664.41;;;17.69;51.35
74905;BME280;63465;50.862;6.220;2022-09-20T12:00:44;100661.44;;;17.45;49.24
74905;BME280;63465;50.862;6.220;2022-09-20T12:05:55;100648.78;;;17.61;50.38
74905;BME280;63465;50.862;6.220;2022-09-20T12:08:31;100650.41;;;17.78;49.86
74905;BME280;63465;50.862;6.220;2022-09-20T12:11:01;100660.53;;;17.88;47.88
74905;BME280;63465;50.862;6.220;2022-09-20T12:13:29;100655.28;;;16.84;47.21
74905;BME280;63465;50.862;6.220;2022-09-20T12:16:07;100656.25;;;17.56;53.04
74905;BME280;63465;50.862;6.220;2022-09-20T12:21:03;100661.59;;;16.83;52.02
74905;BME280;63465;50.862;6.220;2022-09-20T12:33:59;100668.44;;;16.88;50.39
74905;BME280;63465;50.862;6.220;2022-09-20T12:36:27;100669.38;;;17.61;50.03
74905;BME280;63465;50.862;6.220;2022-09-20T12:41:22;100682.13;;;17.86;53.86
74905;BME280;63465;50.862;6.220;2022-09-20T12:43:54;100682.34;;;17.40;53.02
74905;BME280;63465;50.862;6.220;2022-09-20T12:46:24;100696.69;;;17.24;54.80
74905;BME280;63465;50.862;6.220;2022-09-20T12:49:09;100688.56;;;17.40;55.05
74905;BME280;63465;50.862;6.220;2022-09-20T12:51:36;100692.28;;;17.38;54.57
74905;BME280;63465;50.862;6.220;2022-09-20T12:54:21;100684.69;;;17.16;56.13
74905;BME280;63465;50.862;6.220;2022-09-20T12:56:47;100698.97;;;16.39;58.50
74905;BME280;63465;50.862;6.220;2022-09-20T12:59:22;100693.38;;;16.28;59.93
74905;BME280;63465;50.862;6.220;2022-09-20T13:01:49;100689.28;;;16.83;57.92
74905;BME280;63465;50.862;6.220;2022-09-20T13:10:05;100695.28;;;15.61;61.53
74905;BME280;63465;50.862;6.220;2022-09-20T13:12:40;100694.00;;;15.17;62.57
74905;BME280;63465;50.862;6.220;2022-09-20T13:15:16;100699.41;;;15.66;61.32
74905;BME280;63465;50.862;6.220;2022-09-20T13:17:43;100699.91;;;15.57;62.62
74905;BME280;63465;50.862;6.220;2022-09-20T13:20:24;100692.16;;;16.18;60.78
74905;BME280;63465;50.862;6.220;2022-09-20T13:22:52;100693.84;;;16.97;57.05
74905;BME280;63465;50.862;6.220;2022-09-20T13:25:18;100693.44;;;16.89;56.98
74905;BME280;63465;50.862;6.220;2022-09-20T13:27:56;100695.50;;;16.84;56.85
74905;BME280;63465;50.862;6.220;2022-09-20T13:30:27;100692.28;;;17.38;56.50
74905;BME280;63465;50.862;6.220;2022-09-20T13:32:56;100685.69;;;17.72;55.29
74905;BME280;63465;50.862;6.220;2022-09-20T13:35:24;100686.00;;;17.96;54.24
74905;BME280;63465;50.862;6.220;2022-09-20T13:37:57;100690.56;;;17.80;55.14
74905;BME280;63465;50.862;6.220;2022-09-20T13:40:30;100686.81;;;17.25;56.92
74905;BME280;63465;50.862;6.220;2022-09-20T13:43:00;100679.16;;;17.19;55.79
74905;BME280;63465;50.862;6.220;2022-09-20T13:45:26;100679.75;;;16.93;56.14
74905;BME280;63465;50.862;6.220;2022-09-20T13:47:54;100680.13;;;16.41;56.55
74905;BME280;63465;50.862;6.220;2022-09-20T13:50:29;100679.34;;;18.02;54.86
74905;BME280;63465;50.862;6.220;2022-09-20T13:52:58;100680.00;;;18.33;53.89
74905;BME280;63465;50.862;6.220;2022-09-20T13:55:28;100679.41;;;18.42;52.34
74905;BME280;63465;50.862;6.220;2022-09-20T13:57:56;100681.00;;;18.32;51.38
74905;BME280;63465;50.862;6.220;2022-09-20T14:00:23;100680.91;;;19.01;51.31
74905;BME280;63465;50.862;6.220;2022-09-20T14:02:51;100685.28;;;18.62;51.94
74905;BME280;63465;50.862;6.220;2022-09-20T14:05:21;100680.44;;;18.94;51.04
74905;BME280;63465;50.862;6.220;2022-09-20T14:07:48;100670.69;;;19.19;51.06
74905;BME280;63465;50.862;6.220;2022-09-20T14:12:57;100675.16;;;18.25;51.02
74905;BME280;63465;50.862;6.220;2022-09-20T14:15:24;100675.44;;;18.75;52.43
74905;BME280;63465;50.862;6.220;2022-09-20T14:17:51;100665.63;;;18.61;51.25
74905;BME280;63465;50.862;6.220;2022-09-20T14:20:18;100672.41;;;18.67;48.37
74905;BME280;63465;50.862;6.220;2022-09-20T14:22:44;100664.47;;;18.78;52.32
74905;BME280;63465;50.862;6.220;2022-09-20T14:27:38;100656.03;;;18.03;53.48
74905;BME280;63465;50.862;6.220;2022-09-20T14:30:05;100654.06;;;17.92;54.92
74905;BME280;63465;50.862;6.220;2022-09-20T14:32:36;100661.00;;;18.63;49.47
74905;BME280;63465;50.862;6.220;2022-09-20T14:35:06;100657.66;;;18.60;51.11
74905;BME280;63465;50.862;6.220;2022-09-20T14:37:47;100659.91;;;18.26;51.16
74905;BME280;63465;50.862;6.220;2022-09-20T14:42:55;100654.31;;;18.56;46.43
74905;BME280;63465;50.862;6.220;2022-09-20T14:45:35;100652.25;;;18.20;53.11
74905;BME280;63465;50.862;6.220;2022-09-20T14:53:42;100645.53;;;18.67;52.56
74905;BME280;63465;50.862;6.220;2022-09-20T14:56:11;100651.13;;;18.77;52.12
74905;BME280;63465;50.862;6.220;2022-09-20T14:59:03;100643.72;;;18.13;49.98
74905;BME280;63465;50.862;6.220;2022-09-20T15:01:30;100641.50;;;18.20;50.51
74905;BME280;63465;50.862;6.220;2022-09-20T15:03:56;100649.50;;;18.34;50.54
74905;BME280;63465;50.862;6.220;2022-09-20T15:06:23;100644.13;;;18.61;51.37
74905;BME280;63465;50.862;6.220;2022-09-20T15:08:49;100646.28;;;18.29;51.99
74905;BME280;63465;50.862;6.220;2022-09-20T15:11:16;100650.00;;;17.70;48.23
74905;BME280;63465;50.862;6.220;2022-09-20T15:13:42;100642.13;;;17.96;50.17
74905;BME280;63465;50.862;6.220;2022-09-20T15:16:07;100640.38;;;18.36;53.10
74905;BME280;63465;50.862;6.220;2022-09-20T15:18:39;100643.06;;;18.09;52.02
74905;BME280;63465;50.862;6.220;2022-09-20T15:21:05;100636.41;;;18.42;49.72
74905;BME280;63465;50.862;6.220;2022-09-20T15:23:31;100642.00;;;18.39;50.35
74905;BME280;63465;50.862;6.220;2022-09-20T15:25:56;100643.22;;;17.50;53.29
74905;BME280;63465;50.862;6.220;2022-09-20T15:28:22;100638.91;;;17.62;51.70
74905;BME280;63465;50.862;6.220;2022-09-20T15:30:50;100633.03;;;17.70;54.68
74905;BME280;63465;50.862;6.220;2022-09-20T15:33:17;100636.72;;;17.11;48.23
74905;BME280;63465;50.862;6.220;2022-09-20T15:35:43;100633.84;;;17.43;50.78
74905;BME280;63465;50.862;6.220;2022-09-20T15:38:10;100630.25;;;17.71;51.07
74905;BME280;63465;50.862;6.220;2022-09-20T15:40:40;100625.34;;;16.31;49.17
74905;BME280;63465;50.862;6.220;2022-09-20T15:43:06;100624.53;;;15.98;51.46
74905;BME280;63465;50.862;6.220;2022-09-20T15:45:34;100624.88;;;15.92;49.71
74905;BME280;63465;50.862;6.220;2022-09-20T15:48:00;100622.03;;;16.72;50.08
74905;BME280;63465;50.862;6.220;2022-09-20T15:50:27;100631.13;;;17.00;54.13
74905;BME280;63465;50.862;6.220;2022-09-20T15:52:53;100633.34;;;16.00;49.63
74905;BME280;63465;50.862;6.220;2022-09-20T15:55:20;100636.13;;;15.99;51.80
74905;BME280;63465;50.862;6.220;2022-09-20T15:57:46;100632.00;;;15.60;51.68
74905;BME280;63465;50.862;6.220;2022-09-20T16:00:13;100630.38;;;15.73;51.90
74905;BME280;63465;50.862;6.220;2022-09-20T16:02:41;100642.94;;;15.39;52.02
74905;BME280;63465;50.862;6.220;2022-09-20T16:05:06;100634.91;;;15.06;54.22
74905;BME280;63465;50.862;6.220;2022-09-20T16:07:34;100643.59;;;15.27;53.44
74905;BME280;63465;50.862;6.220;2022-09-20T16:10:00;100643.47;;;14.95;53.38
74905;BME280;63465;50.862;6.220;2022-09-20T16:12:25;100648.19;;;15.07;52.70
74905;BME280;63465;50.862;6.220;2022-09-20T16:14:51;100653.53;;;15.07;55.49
74905;BME280;63465;50.862;6.220;2022-09-20T16:17:17;100654.38;;;15.08;54.53
74905;BME280;63465;50.862;6.220;2022-09-20T16:19:43;100654.16;;;15.95;58.57
74905;BME280;63465;50.862;6.220;2022-09-20T16:22:10;100652.63;;;15.58;54.16
74905;BME280;63465;50.862;6.220;2022-09-20T16:24:37;100653.72;;;15.87;57.17
74905;BME280;63465;50.862;6.220;2022-09-20T16:27:05;100656.66;;;15.15;54.22
74905;BME280;63465;50.862;6.220;2022-09-20T16:29:31;100651.78;;;15.73;56.15
74905;BME280;63465;50.862;6.220;2022-09-20T16:31:58;100659.81;;;15.24;55.65
74905;BME280;63465;50.862;6.220;2022-09-20T16:34:27;100651.19;;;15.01;55.84
74905;BME280;63465;50.862;6.220;2022-09-20T16:37:01;100655.78;;;14.97;56.79
74905;BME280;63465;50.862;6.220;2022-09-20T16:39:28;100654.31;;;14.92;55.21
74905;BME280;63465;50.862;6.220;2022-09-20T16:41:56;100663.06;;;14.78;56.09
74905;BME280;63465;50.862;6.220;2022-09-20T16:44:22;100657.97;;;14.37;56.97
74905;BME280;63465;50.862;6.220;2022-09-20T16:46:48;100664.22;;;14.36;57.48
74905;BME280;63465;50.862;6.220;2022-09-20T16:49:14;100659.25;;;14.28;57.76
74905;BME280;63465;50.862;6.220;2022-09-20T16:51:42;100665.00;;;14.38;59.32
74905;BME280;63465;50.862;6.220;2022-09-20T16:54:09;100659.88;;;14.16;59.14
74905;BME280;63465;50.862;6.220;2022-09-20T16:56:41;100664.19;;;14.18;59.54
74905;BME280;63465;50.862;6.220;2022-09-20T16:59:07;100670.13;;;14.06;60.17
74905;BME280;63465;50.862;6.220;2022-09-20T17:01:34;100663.47;;;14.15;60.21
74905;BME280;63465;50.862;6.220;2022-09-20T17:04:02;100663.63;;;14.12;60.63
74905;BME280;63465;50.862;6.220;2022-09-20T17:06:30;100669.53;;;14.18;60.71
74905;BME280;63465;50.862;6.220;2022-09-20T17:08:56;100661.75;;;14.14;60.95
74905;BME280;63465;50.862;6.220;2022-09-20T17:11:27;100667.25;;;14.11;61.64
74905;BME280;63465;50.862;6.220;2022-09-20T17:13:53;100678.06;;;13.88;61.96
74905;BME280;63465;50.862;6.220;2022-09-20T17:16:34;100675.22;;;13.53;63.63
74905;BME280;63465;50.862;6.220;2022-09-20T17:19:03;100676.88;;;13.56;63.54
74905;BME280;63465;50.862;6.220;2022-09-20T17:21:31;100682.16;;;13.58;62.79
74905;BME280;63465;50.862;6.220;2022-09-20T17:23:58;100683.78;;;13.41;64.13
74905;BME280;63465;50.862;6.220;2022-09-20T17:26:26;100683.19;;;13.34;64.19
74905;BME280;63465;50.862;6.220;2022-09-20T17:28:53;100683.31;;;13.31;63.60